Terminal Aerodrome Forecast
Issued by NWS

Home | Current Version | Previous Version | Text Only | Print | Product List | Glossary Off
Versions: 1 2 3 4 5 6 7 8 9 10 11 12 13 14 15 16 17 18 19 20 21 22 23

000
FTUS43 KBIS 182300
TAFJMS
TAF
KJMS 182325Z 1900/1924 17018G22KT P6SM BKN250
     FM190200 17014G19KT P6SM SCT180 OVC250
     FM190500 18013G18KT P6SM VCSH BKN110 OVC150
     FM191000 19014KT P6SM VCSH SCT025 BKN070 OVC100
     FM191600 23010KT P6SM SCT025 SCT120
     FM192000 26011KT P6SM FEW120=

USA.gov is the U.S. government's official web portal to all federal, state and local government web resources and services.